TIAUM MRPV-MRAN
Flight info
| Callsign | TIAUM |
|---|---|
| Flight time | 0h 29m |
| Altitude | 5000 |
| Route | BELEN DCT TIO DCT FANAL/N0112F060 DCT RAMON DCT ARENA |
| Aircraft | C172/L-SFG/C |
Departure
| Time | 2026-04-22 21:55 |
|---|---|
| Airport | Tobías Bolaños International Airport (MRPV) |
Arrival
| Time | 2026-04-22 22:24 |
|---|---|
| Airport | La Fortuna Arenal Airport (MRAN) |
| Time | Latitude | Longitude | Altitude | Speed | Heading |
|---|---|---|---|---|---|
| 2026-04-22 21:31 | 9.95885 | -84.14349 | 3253 ft | 0 kts | 144° |
| 2026-04-22 21:46 | 9.95868 | -84.14322 | 3255 ft | 5 kts | 99° |
| 2026-04-22 21:47 | 9.95862 | -84.14292 | 3257 ft | 0 kts | 174° |
| 2026-04-22 21:47 | 9.95814 | -84.14294 | 3257 ft | 7 kts | 201° |
| 2026-04-22 21:47 | 9.95790 | -84.14316 | 3256 ft | 3 kts | 260° |
| 2026-04-22 21:47 | 9.95793 | -84.14368 | 3253 ft | 13 kts | 274° |
| 2026-04-22 21:48 | 9.95801 | -84.14441 | 3248 ft | 16 kts | 267° |
| 2026-04-22 21:48 | 9.95807 | -84.14530 | 3241 ft | 7 kts | 278° |
| 2026-04-22 21:48 | 9.95820 | -84.14561 | 3239 ft | 9 kts | 312° |
| 2026-04-22 21:48 | 9.95825 | -84.14604 | 3236 ft | 4 kts | 254° |
| 2026-04-22 21:49 | 9.95823 | -84.14608 | 3236 ft | 0 kts | 227° |
| 2026-04-22 21:49 | 9.95813 | -84.14614 | 3235 ft | 0 kts | 182° |
| 2026-04-22 21:49 | 9.95808 | -84.14614 | 3235 ft | 0 kts | 180° |
| 2026-04-22 21:52 | 9.95807 | -84.14614 | 3235 ft | 1 kts | 179° |
| 2026-04-22 21:53 | 9.95789 | -84.14614 | 3235 ft | 3 kts | 187° |
| 2026-04-22 21:53 | 9.95768 | -84.14615 | 3235 ft | 0 kts | 131° |
| 2026-04-22 21:53 | 9.95764 | -84.14593 | 3237 ft | 11 kts | 96° |
| 2026-04-22 21:53 | 9.95745 | -84.14345 | 3255 ft | 55 kts | 95° |
| 2026-04-22 21:54 | 9.95706 | -84.13920 | 3455 ft | 50 kts | 92° |
| 2026-04-22 21:54 | 9.95684 | -84.13538 | 3547 ft | 62 kts | 102° |
| 2026-04-22 21:54 | 9.95620 | -84.13085 | 3718 ft | 64 kts | 85° |
| 2026-04-22 21:54 | 9.95533 | -84.12655 | 3875 ft | 73 kts | 130° |
| 2026-04-22 21:55 | 9.95063 | -84.12694 | 4075 ft | 79 kts | 232° |
| 2026-04-22 21:55 | 9.94997 | -84.13240 | 4206 ft | 85 kts | 284° |
| 2026-04-22 21:55 | 9.95075 | -84.13808 | 4452 ft | 78 kts | 281° |
| 2026-04-22 21:55 | 9.95100 | -84.14394 | 4579 ft | 88 kts | 274° |
| 2026-04-22 21:56 | 9.95075 | -84.14950 | 4853 ft | 76 kts | 275° |
| 2026-04-22 21:56 | 9.95111 | -84.15543 | 4982 ft | 84 kts | 279° |
| 2026-04-22 21:56 | 9.95336 | -84.16054 | 5186 ft | 76 kts | 322° |
| 2026-04-22 21:56 | 9.95791 | -84.16219 | 5403 ft | 65 kts | 8° |
| 2026-04-22 21:57 | 9.96145 | -84.16007 | 5617 ft | 57 kts | 56° |
| 2026-04-22 21:57 | 9.96234 | -84.15694 | 5796 ft | 49 kts | 80° |
| 2026-04-22 21:57 | 9.96174 | -84.15245 | 5837 ft | 72 kts | 97° |
| 2026-04-22 21:57 | 9.96097 | -84.14807 | 5977 ft | 71 kts | 99° |
| 2026-04-22 21:58 | 9.95998 | -84.14352 | 6151 ft | 66 kts | 92° |
| 2026-04-22 21:58 | 9.96044 | -84.13902 | 6239 ft | 76 kts | 78° |
| 2026-04-22 21:58 | 9.96016 | -84.13308 | 6303 ft | 92 kts | 117° |
| 2026-04-22 21:58 | 9.95440 | -84.13221 | 6484 ft | 94 kts | 219° |
| 2026-04-22 21:59 | 9.95253 | -84.13792 | 6715 ft | 83 kts | 267° |
| 2026-04-22 21:59 | 9.95281 | -84.14447 | 6916 ft | 67 kts | 271° |
| 2026-04-22 21:59 | 9.95215 | -84.14913 | 6923 ft | 88 kts | 260° |
| 2026-04-22 21:59 | 9.95114 | -84.15381 | 7134 ft | 78 kts | 274° |
| 2026-04-22 22:00 | 9.95224 | -84.15996 | 7158 ft | 94 kts | 284° |
| 2026-04-22 22:00 | 9.95256 | -84.16699 | 7241 ft | 101 kts | 271° |
| 2026-04-22 22:00 | 9.95275 | -84.17438 | 7254 ft | 114 kts | 278° |
| 2026-04-22 22:00 | 9.95401 | -84.18211 | 7227 ft | 123 kts | 283° |
| 2026-04-22 22:01 | 9.95571 | -84.19102 | 7117 ft | 130 kts | 283° |
| 2026-04-22 22:01 | 9.95768 | -84.20015 | 6968 ft | 133 kts | 285° |
| 2026-04-22 22:01 | 9.95998 | -84.20946 | 6736 ft | 139 kts | 288° |
| 2026-04-22 22:01 | 9.96264 | -84.21928 | 6483 ft | 144 kts | 288° |
| 2026-04-22 22:02 | 9.96527 | -84.22894 | 6228 ft | 139 kts | 287° |
| 2026-04-22 22:02 | 9.96868 | -84.23804 | 6025 ft | 130 kts | 303° |
| 2026-04-22 22:02 | 9.97341 | -84.24511 | 6063 ft | 113 kts | 311° |
| 2026-04-22 22:02 | 9.97862 | -84.25089 | 6070 ft | 107 kts | 321° |
| 2026-04-22 22:03 | 9.98420 | -84.25617 | 6072 ft | 106 kts | 319° |
| 2026-04-22 22:03 | 9.98947 | -84.26171 | 6074 ft | 108 kts | 315° |
| 2026-04-22 22:03 | 9.99453 | -84.26761 | 6074 ft | 110 kts | 313° |
| 2026-04-22 22:03 | 9.99944 | -84.27383 | 6072 ft | 111 kts | 311° |
| 2026-04-22 22:04 | 10.00421 | -84.28024 | 6073 ft | 113 kts | 310° |
| 2026-04-22 22:04 | 10.00890 | -84.28684 | 6073 ft | 114 kts | 309° |
| 2026-04-22 22:04 | 10.01374 | -84.29351 | 6073 ft | 114 kts | 309° |
| 2026-04-22 22:04 | 10.01774 | -84.30058 | 6073 ft | 115 kts | 296° |
| 2026-04-22 22:05 | 10.02075 | -84.30820 | 6071 ft | 115 kts | 296° |
| 2026-04-22 22:05 | 10.02391 | -84.31554 | 6074 ft | 114 kts | 297° |
| 2026-04-22 22:05 | 10.02758 | -84.32305 | 6042 ft | 117 kts | 299° |
| 2026-04-22 22:05 | 10.03162 | -84.33045 | 6021 ft | 118 kts | 299° |
| 2026-04-22 22:06 | 10.03535 | -84.33790 | 6018 ft | 117 kts | 292° |
| 2026-04-22 22:06 | 10.03904 | -84.34528 | 6018 ft | 116 kts | 298° |
| 2026-04-22 22:06 | 10.04277 | -84.35262 | 6018 ft | 116 kts | 296° |
| 2026-04-22 22:06 | 10.04638 | -84.36007 | 6018 ft | 115 kts | 296° |
| 2026-04-22 22:07 | 10.04961 | -84.36676 | 6018 ft | 115 kts | 296° |
| 2026-04-22 22:07 | 10.05317 | -84.37421 | 6017 ft | 115 kts | 294° |
| 2026-04-22 22:07 | 10.05539 | -84.38203 | 6018 ft | 115 kts | 286° |
| 2026-04-22 22:07 | 10.05787 | -84.38969 | 6016 ft | 111 kts | 290° |
| 2026-04-22 22:08 | 10.06069 | -84.39685 | 6015 ft | 105 kts | 293° |
| 2026-04-22 22:08 | 10.06349 | -84.40329 | 6016 ft | 101 kts | 294° |
| 2026-04-22 22:08 | 10.06626 | -84.40936 | 6016 ft | 98 kts | 295° |
| 2026-04-22 22:08 | 10.06886 | -84.41574 | 6017 ft | 96 kts | 287° |
| 2026-04-22 22:09 | 10.07136 | -84.42188 | 6017 ft | 95 kts | 299° |
| 2026-04-22 22:09 | 10.07545 | -84.42728 | 6017 ft | 94 kts | 314° |
| 2026-04-22 22:09 | 10.08037 | -84.43160 | 6018 ft | 93 kts | 323° |
| 2026-04-22 22:09 | 10.08572 | -84.43538 | 6018 ft | 93 kts | 327° |
| 2026-04-22 22:10 | 10.09140 | -84.43922 | 6024 ft | 105 kts | 322° |
| 2026-04-22 22:10 | 10.09761 | -84.44404 | 6024 ft | 117 kts | 326° |
| 2026-04-22 22:10 | 10.10434 | -84.44855 | 6020 ft | 121 kts | 327° |
| 2026-04-22 22:10 | 10.10920 | -84.45175 | 6019 ft | 121 kts | 327° |
| 2026-04-22 22:11 | 10.11707 | -84.45695 | 6018 ft | 121 kts | 327° |
| 2026-04-22 22:11 | 10.12422 | -84.46167 | 6018 ft | 121 kts | 327° |
| 2026-04-22 22:11 | 10.13110 | -84.46621 | 6018 ft | 121 kts | 327° |
| 2026-04-22 22:11 | 10.13892 | -84.46908 | 6017 ft | 121 kts | 355° |
| 2026-04-22 22:12 | 10.14742 | -84.46967 | 6018 ft | 121 kts | 355° |
| 2026-04-22 22:12 | 10.15530 | -84.47215 | 6018 ft | 121 kts | 328° |
| 2026-04-22 22:12 | 10.16220 | -84.47642 | 6018 ft | 121 kts | 332° |
| 2026-04-22 22:12 | 10.16981 | -84.48035 | 6018 ft | 121 kts | 334° |
| 2026-04-22 22:13 | 10.17744 | -84.48400 | 6018 ft | 121 kts | 335° |
| 2026-04-22 22:13 | 10.18546 | -84.48600 | 6017 ft | 121 kts | 354° |
| 2026-04-22 22:13 | 10.19344 | -84.48882 | 6018 ft | 121 kts | 336° |
| 2026-04-22 22:13 | 10.20117 | -84.49242 | 6018 ft | 121 kts | 335° |
| 2026-04-22 22:14 | 10.20889 | -84.49611 | 6018 ft | 121 kts | 335° |
| 2026-04-22 22:14 | 10.21656 | -84.49977 | 6018 ft | 121 kts | 335° |
| 2026-04-22 22:14 | 10.22424 | -84.50344 | 6018 ft | 121 kts | 335° |
| 2026-04-22 22:14 | 10.23193 | -84.50712 | 6018 ft | 121 kts | 335° |
| 2026-04-22 22:15 | 10.23964 | -84.51081 | 6018 ft | 121 kts | 335° |
| 2026-04-22 22:15 | 10.24739 | -84.51453 | 6018 ft | 121 kts | 335° |
| 2026-04-22 22:15 | 10.25507 | -84.51821 | 6018 ft | 121 kts | 335° |
| 2026-04-22 22:15 | 10.26269 | -84.52187 | 6018 ft | 121 kts | 335° |
| 2026-04-22 22:16 | 10.26967 | -84.52522 | 6018 ft | 121 kts | 335° |
| 2026-04-22 22:16 | 10.27692 | -84.52869 | 6014 ft | 110 kts | 335° |
| 2026-04-22 22:16 | 10.28372 | -84.53197 | 6016 ft | 105 kts | 335° |
| 2026-04-22 22:16 | 10.29033 | -84.53514 | 6016 ft | 102 kts | 335° |
| 2026-04-22 22:17 | 10.29679 | -84.53825 | 6020 ft | 105 kts | 334° |
| 2026-04-22 22:17 | 10.30209 | -84.54081 | 6020 ft | 109 kts | 334° |
| 2026-04-22 22:17 | 10.30929 | -84.54429 | 6020 ft | 112 kts | 334° |
| 2026-04-22 22:17 | 10.31650 | -84.54777 | 6019 ft | 114 kts | 334° |
| 2026-04-22 22:18 | 10.32360 | -84.55120 | 6019 ft | 115 kts | 334° |
| 2026-04-22 22:18 | 10.33086 | -84.55470 | 6018 ft | 115 kts | 334° |
| 2026-04-22 22:18 | 10.33826 | -84.55828 | 6018 ft | 116 kts | 334° |
| 2026-04-22 22:18 | 10.34557 | -84.56182 | 6018 ft | 116 kts | 334° |
| 2026-04-22 22:19 | 10.35295 | -84.56540 | 6018 ft | 116 kts | 334° |
| 2026-04-22 22:19 | 10.36036 | -84.56899 | 6018 ft | 116 kts | 334° |
| 2026-04-22 22:19 | 10.36778 | -84.57227 | 6017 ft | 116 kts | 342° |
| 2026-04-22 22:19 | 10.37563 | -84.57413 | 6018 ft | 116 kts | 350° |
| 2026-04-22 22:20 | 10.38392 | -84.57531 | 5768 ft | 130 kts | 353° |
| 2026-04-22 22:20 | 10.39328 | -84.57722 | 5355 ft | 140 kts | 340° |
| 2026-04-22 22:20 | 10.40229 | -84.58038 | 4837 ft | 137 kts | 343° |
| 2026-04-22 22:20 | 10.41136 | -84.58283 | 4385 ft | 129 kts | 347° |
| 2026-04-22 22:21 | 10.41976 | -84.58451 | 4110 ft | 114 kts | 352° |
| 2026-04-22 22:21 | 10.42840 | -84.58573 | 3447 ft | 129 kts | 349° |
| 2026-04-22 22:21 | 10.43678 | -84.58714 | 3135 ft | 114 kts | 352° |
| 2026-04-22 22:21 | 10.44432 | -84.58935 | 2697 ft | 117 kts | 339° |
| 2026-04-22 22:22 | 10.45207 | -84.59195 | 2212 ft | 122 kts | 344° |
| 2026-04-22 22:22 | 10.45999 | -84.59417 | 1758 ft | 107 kts | 345° |
| 2026-04-22 22:22 | 10.46650 | -84.59537 | 1540 ft | 87 kts | 355° |
| 2026-04-22 22:22 | 10.47213 | -84.59571 | 1383 ft | 65 kts | 353° |
| 2026-04-22 22:23 | 10.47370 | -84.59892 | 1262 ft | 71 kts | 237° |
| 2026-04-22 22:23 | 10.46981 | -84.60201 | 1200 ft | 70 kts | 202° |
| 2026-04-22 22:23 | 10.46631 | -84.59972 | 1115 ft | 71 kts | 109° |
| 2026-04-22 22:23 | 10.46477 | -84.59480 | 878 ft | 76 kts | 105° |
| 2026-04-22 22:24 | 10.46456 | -84.58965 | 666 ft | 77 kts | 82° |
| 2026-04-22 22:24 | 10.46649 | -84.58446 | 441 ft | 77 kts | 60° |
| 2026-04-22 22:24 | 10.46864 | -84.58037 | 356 ft | 50 kts | 62° |
| 2026-04-22 22:24 | 10.46988 | -84.57799 | 354 ft | 26 kts | 63° |
| 2026-04-22 22:25 | 10.47054 | -84.57671 | 350 ft | 10 kts | 63° |
| 2026-04-22 22:25 | 10.47085 | -84.57614 | 348 ft | 8 kts | 63° |
| 2026-04-22 22:25 | 10.47108 | -84.57571 | 346 ft | 2 kts | 51° |
| 2026-04-22 22:25 | 10.47110 | -84.57570 | 346 ft | 0 kts | 58° |
| 2026-04-22 22:26 | 10.47115 | -84.57565 | 346 ft | 0 kts | 252° |
| 2026-04-22 22:26 | 10.47115 | -84.57566 | 346 ft | 0 kts | 251° |